Time,TemperatureF,DewpointF,PressureIn,WindDirection,WindDirectionDegrees,WindSpeedMPH,WindSpeedGustMPH,Humidity,HourlyPrecipIn,Conditions,Clouds,dailyrainin,SoftwareType,DateUTC
2013-02-26 00:01:00,30.0,25.0,30.29,North,4,1.0,4.0,82,0.00,,,0.14,,2013-02-26 05:01:00,
2013-02-26 00:12:00,30.0,25.0,30.29,North,4,1.0,4.0,82,0.00,,,0.14,,2013-02-26 05:12:00,
2013-02-26 00:22:00,30.0,25.0,30.30,NW,318,2.0,4.0,83,0.00,,,0.14,,2013-02-26 05:22:00,
2013-02-26 00:32:00,30.0,25.0,30.30,NNW,339,3.0,5.0,83,0.00,,,0.14,,2013-02-26 05:32:00,
2013-02-26 00:43:00,30.0,25.0,30.30,NNW,339,3.0,5.0,83,0.00,,,0.14,,2013-02-26 05:43:00,
2013-02-26 00:52:00,30.0,26.0,30.31,NW,320,2.0,4.0,84,0.00,,,0.14,,2013-02-26 05:52:00,
2013-02-26 01:02:00,30.0,26.0,30.32,NW,326,2.0,4.0,85,0.00,,,0.14,,2013-02-26 06:02:00,
2013-02-26 01:11:00,30.0,26.0,30.32,NW,326,2.0,4.0,85,0.00,,,0.14,,2013-02-26 06:11:00,
2013-02-26 01:22:00,29.0,25.0,30.32,NW,312,2.0,5.0,85,0.00,,,0.14,,2013-02-26 06:22:00,
2013-02-26 01:32:00,30.0,26.0,30.32,NNW,347,3.0,5.0,84,0.00,,,0.14,,2013-02-26 06:32:00,
2013-02-26 01:42:00,30.0,26.0,30.32,NNW,347,3.0,5.0,84,0.00,,,0.14,,2013-02-26 06:42:00,
2013-02-26 01:52:00,29.0,25.0,30.33,NNW,342,2.0,6.0,84,0.00,,,0.14,,2013-02-26 06:52:00,
2013-02-26 02:01:00,29.0,25.0,30.33,NW,321,3.0,6.0,83,0.00,,,0.14,,2013-02-26 07:01:00,
2013-02-26 02:11:00,29.0,25.0,30.33,NW,321,3.0,6.0,83,0.00,,,0.14,,2013-02-26 07:11:00,
2013-02-26 02:22:00,29.0,24.0,30.33,NW,310,2.0,5.0,82,0.00,,,0.14,,2013-02-26 07:22:00,
2013-02-26 02:32:00,29.0,24.0,30.33,NW,312,3.0,5.0,81,0.00,,,0.14,,2013-02-26 07:32:00,
2013-02-26 02:42:00,29.0,24.0,30.33,NW,312,3.0,5.0,81,0.00,,,0.14,,2013-02-26 07:42:00,
2013-02-26 02:51:00,29.0,24.0,30.33,NW,315,3.0,5.0,81,0.00,,,0.14,,2013-02-26 07:51:00,
2013-02-26 03:02:00,29.0,24.0,30.33,NW,313,3.0,5.0,81,0.00,,,0.14,,2013-02-26 08:02:00,
2013-02-26 03:11:00,29.0,24.0,30.33,NW,313,3.0,5.0,81,0.00,,,0.14,,2013-02-26 08:11:00,
2013-02-26 03:21:00,29.0,24.0,30.33,NW,316,3.0,6.0,81,0.00,,,0.14,,2013-02-26 08:21:00,
2013-02-26 03:32:00,30.0,25.0,30.33,NNW,339,3.0,6.0,80,0.00,,,0.14,,2013-02-26 08:32:00,
2013-02-26 03:42:00,30.0,25.0,30.33,NNW,339,3.0,6.0,80,0.00,,,0.14,,2013-02-26 08:42:00,
2013-02-26 03:52:00,30.0,25.0,30.33,NW,322,3.0,5.0,81,0.00,,,0.14,,2013-02-26 08:52:00,
2013-02-26 04:02:00,30.0,25.0,30.33,NW,313,2.0,5.0,81,0.00,,,0.14,,2013-02-26 09:02:00,
2013-02-26 04:11:00,30.0,25.0,30.33,NW,313,2.0,5.0,81,0.00,,,0.14,,2013-02-26 09:11:00,
2013-02-26 04:21:00,30.0,25.0,30.34,NW,314,2.0,5.0,81,0.00,,,0.14,,2013-02-26 09:21:00,
2013-02-26 04:32:00,30.0,25.0,30.35,NW,320,2.0,6.0,82,0.00,,,0.14,,2013-02-26 09:32:00,
2013-02-26 04:43:00,30.0,25.0,30.35,NW,320,2.0,6.0,82,0.00,,,0.14,,2013-02-26 09:43:00,
2013-02-26 04:51:00,30.0,25.0,30.35,NW,316,2.0,5.0,81,0.00,,,0.14,,2013-02-26 09:51:00,
2013-02-26 05:01:00,30.0,25.0,30.36,NW,323,3.0,5.0,81,0.00,,,0.14,,2013-02-26 10:01:00,
2013-02-26 05:11:00,30.0,25.0,30.36,NW,323,3.0,5.0,81,0.00,,,0.14,,2013-02-26 10:11:00,
2013-02-26 05:21:00,30.0,25.0,30.36,NW,325,3.0,5.0,81,0.00,,,0.14,,2013-02-26 10:21:00,
2013-02-26 05:32:00,30.0,25.0,30.37,NW,319,1.0,4.0,81,0.00,,,0.14,,2013-02-26 10:32:00,
2013-02-26 05:42:00,30.0,25.0,30.37,NW,319,1.0,4.0,81,0.00,,,0.14,,2013-02-26 10:42:00,
2013-02-26 05:52:00,31.0,26.0,30.37,NW,320,1.0,3.0,81,0.00,,,0.14,,2013-02-26 10:52:00,
2013-02-26 06:01:00,31.0,26.0,30.37,NNW,331,2.0,4.0,81,0.00,,,0.14,,2013-02-26 11:01:00,
2013-02-26 06:12:00,31.0,26.0,30.37,NNW,331,2.0,4.0,81,0.00,,,0.14,,2013-02-26 11:12:00,
2013-02-26 06:22:00,30.0,25.0,30.37,NW,319,2.0,4.0,81,0.00,,,0.14,,2013-02-26 11:22:00,
2013-02-26 06:32:00,30.0,25.0,30.37,NNW,328,2.0,4.0,81,0.00,,,0.14,,2013-02-26 11:32:00,
2013-02-26 06:42:00,30.0,25.0,30.37,NNW,328,2.0,4.0,81,0.00,,,0.14,,2013-02-26 11:42:00,
2013-02-26 06:52:00,30.0,25.0,30.38,NNW,328,1.0,5.0,81,0.00,,,0.14,,2013-02-26 11:52:00,
2013-02-26 07:02:00,30.0,25.0,30.39,NW,312,3.0,4.0,81,0.00,,,0.14,,2013-02-26 12:02:00,
2013-02-26 07:11:00,30.0,25.0,30.39,NW,312,3.0,4.0,81,0.00,,,0.14,,2013-02-26 12:11:00,
2013-02-26 07:22:00,30.0,25.0,30.40,WNW,301,1.0,4.0,82,0.00,,,0.14,,2013-02-26 12:22:00,
2013-02-26 07:32:00,30.0,25.0,30.40,NW,318,2.0,4.0,82,0.00,,,0.14,,2013-02-26 12:32:00,
2013-02-26 07:42:00,30.0,25.0,30.40,NW,318,2.0,4.0,82,0.00,,,0.14,,2013-02-26 12:42:00,
2013-02-26 07:52:00,31.0,26.0,30.40,NW,308,2.0,4.0,82,0.00,,,0.14,,2013-02-26 12:52:00,
2013-02-26 08:02:00,31.0,26.0,30.40,NW,320,2.0,3.0,82,0.00,,,0.14,,2013-02-26 13:02:00,
2013-02-26 08:11:00,31.0,26.0,30.40,NW,320,2.0,3.0,82,0.00,,,0.14,,2013-02-26 13:11:00,
2013-02-26 08:22:00,31.0,26.0,30.41,NW,317,1.0,3.0,81,0.00,,,0.14,,2013-02-26 13:22:00,
2013-02-26 08:32:00,32.0,27.0,30.40,NW,320,1.0,3.0,81,0.00,,,0.14,,2013-02-26 13:32:00,
2013-02-26 08:42:00,32.0,27.0,30.40,NW,320,1.0,3.0,81,0.00,,,0.14,,2013-02-26 13:42:00,
2013-02-26 08:52:00,32.0,26.0,30.41,NNE,13,1.0,5.0,79,0.00,,,0.14,,2013-02-26 13:52:00,
2013-02-26 09:02:00,33.0,27.0,30.42,North,10,1.0,5.0,78,0.00,,,0.14,,2013-02-26 14:02:00,
2013-02-26 09:11:00,33.0,27.0,30.42,North,10,1.0,5.0,78,0.00,,,0.14,,2013-02-26 14:11:00,
2013-02-26 09:22:00,34.0,27.0,30.41,NNE,30,1.0,4.0,74,0.00,,,0.14,,2013-02-26 14:22:00,
2013-02-26 09:32:00,35.0,27.0,30.41,NNE,23,1.0,5.0,71,0.00,,,0.14,,2013-02-26 14:32:00,
2013-02-26 09:42:00,35.0,27.0,30.41,NNE,23,1.0,5.0,71,0.00,,,0.14,,2013-02-26 14:42:00,
2013-02-26 09:52:00,36.0,28.0,30.42,NNE,14,1.0,5.0,71,0.00,,,0.14,,2013-02-26 14:52:00,
2013-02-26 10:02:00,36.0,26.0,30.41,ENE,70,1.0,7.0,68,0.00,,,0.14,,2013-02-26 15:02:00,
2013-02-26 10:12:00,36.0,26.0,30.41,ENE,70,1.0,7.0,68,0.00,,,0.14,,2013-02-26 15:12:00,
2013-02-26 10:22:00,36.0,26.0,30.41,NE,40,1.0,6.0,67,0.00,,,0.14,,2013-02-26 15:22:00,
2013-02-26 10:32:00,37.0,27.0,30.41,NNE,15,3.0,7.0,66,0.01,,,0.15,,2013-02-26 15:32:00,
2013-02-26 10:42:00,37.0,27.0,30.41,NNE,15,3.0,7.0,66,0.01,,,0.15,,2013-02-26 15:42:00,
2013-02-26 10:52:00,37.0,26.0,30.41,ESE,106,0.0,5.0,65,0.01,,,0.15,,2013-02-26 15:52:00,
2013-02-26 11:02:00,38.0,27.0,30.40,NE,56,1.0,7.0,64,0.01,,,0.15,,2013-02-26 16:02:00,
2013-02-26 11:11:00,38.0,27.0,30.40,NE,56,1.0,7.0,64,0.01,,,0.15,,2013-02-26 16:11:00,
2013-02-26 11:22:00,39.0,28.0,30.40,NNW,332,1.0,7.0,64,0.01,,,0.15,,2013-02-26 16:22:00,
2013-02-26 11:32:00,38.0,26.0,30.40,WNW,289,0.0,7.0,62,0.00,,,0.13,,2013-02-26 16:32:00,
2013-02-26 11:42:00,38.0,26.0,30.40,WNW,289,0.0,7.0,62,0.00,,,0.13,,2013-02-26 16:42:00,
2013-02-26 11:52:00,39.0,27.0,30.40,North,359,3.0,7.0,61,0.00,,,0.13,,2013-02-26 16:52:00,
2013-02-26 12:01:00,38.0,27.0,30.40,North,349,2.0,6.0,63,0.00,,,0.13,,2013-02-26 17:01:00,
2013-02-26 12:11:00,38.0,27.0,30.40,North,349,2.0,6.0,63,0.00,,,0.13,,2013-02-26 17:11:00,
2013-02-26 12:22:00,38.0,27.0,30.40,NW,306,3.0,7.0,63,0.00,,,0.13,,2013-02-26 17:22:00,
2013-02-26 12:32:00,38.0,27.0,30.39,NNW,341,0.0,4.0,65,0.00,,,0.10,,2013-02-26 17:32:00,
2013-02-26 12:42:00,38.0,27.0,30.39,NNW,341,0.0,4.0,65,0.00,,,0.10,,2013-02-26 17:42:00,
2013-02-26 12:52:00,38.0,26.0,30.38,NNE,23,3.0,5.0,61,0.00,,,0.10,,2013-02-26 17:52:00,
2013-02-26 13:02:00,38.0,27.0,30.38,NNE,32,0.0,3.0,64,0.00,,,0.10,,2013-02-26 18:02:00,
2013-02-26 13:12:00,38.0,27.0,30.38,NNE,32,0.0,3.0,64,0.00,,,0.10,,2013-02-26 18:12:00,
2013-02-26 13:21:00,39.0,26.0,30.38,ENE,74,0.0,3.0,60,0.00,,,0.10,,2013-02-26 18:21:00,
2013-02-26 13:32:00,38.0,26.0,30.38,WNW,293,1.0,4.0,61,0.00,,,0.06,,2013-02-26 18:32:00,
2013-02-26 13:42:00,38.0,26.0,30.38,WNW,293,1.0,4.0,61,0.00,,,0.06,,2013-02-26 18:42:00,
2013-02-26 13:52:00,38.0,26.0,30.37,NE,37,3.0,5.0,62,0.00,,,0.06,,2013-02-26 18:52:00,
2013-02-26 14:02:00,38.0,26.0,30.37,NE,54,0.0,6.0,61,0.00,,,0.06,,2013-02-26 19:02:00,
2013-02-26 14:11:00,38.0,26.0,30.37,NE,54,0.0,6.0,61,0.00,,,0.06,,2013-02-26 19:11:00,
2013-02-26 14:22:00,38.0,27.0,30.37,East,98,2.0,5.0,63,0.00,,,0.06,,2013-02-26 19:22:00,
2013-02-26 14:32:00,37.0,27.0,30.37,SE,143,4.0,8.0,67,0.00,,,0.04,,2013-02-26 19:32:00,
2013-02-26 14:42:00,37.0,27.0,30.37,SE,143,4.0,8.0,67,0.00,,,0.04,,2013-02-26 19:42:00,
2013-02-26 14:52:00,37.0,27.0,30.39,SSE,162,3.0,7.0,68,0.00,,,0.04,,2013-02-26 19:52:00,
2013-02-26 15:01:00,37.0,27.0,30.39,South,189,3.0,8.0,67,0.00,,,0.04,,2013-02-26 20:01:00,
2013-02-26 15:11:00,37.0,27.0,30.39,South,189,3.0,8.0,67,0.00,,,0.04,,2013-02-26 20:11:00,
2013-02-26 15:22:00,37.0,27.0,30.39,SE,145,5.0,9.0,66,0.00,,,0.04,,2013-02-26 20:22:00,
2013-02-26 15:32:00,37.0,27.0,30.39,SSE,164,2.0,7.0,67,0.00,,,0.03,,2013-02-26 20:32:00,
2013-02-26 15:41:00,37.0,27.0,30.39,SSE,164,2.0,7.0,67,0.00,,,0.03,,2013-02-26 20:41:00,
2013-02-26 15:52:00,36.0,26.0,30.39,SSE,152,5.0,8.0,66,0.00,,,0.03,,2013-02-26 20:52:00,
2013-02-26 16:01:00,36.0,26.0,30.38,South,181,4.0,9.0,67,0.00,,,0.03,,2013-02-26 21:01:00,
2013-02-26 16:11:00,36.0,26.0,30.38,South,181,4.0,9.0,67,0.00,,,0.03,,2013-02-26 21:11:00,
2013-02-26 16:21:00,36.0,26.0,30.37,SE,135,4.0,10.0,68,0.00,,,0.03,,2013-02-26 21:21:00,
2013-02-26 16:31:00,36.0,26.0,30.37,SSE,164,5.0,9.0,68,0.00,,,0.02,,2013-02-26 21:31:00,
2013-02-26 16:41:00,36.0,26.0,30.37,SSE,164,5.0,9.0,68,0.00,,,0.02,,2013-02-26 21:41:00,
2013-02-26 16:51:00,36.0,27.0,30.38,SSE,162,3.0,6.0,69,0.00,,,0.02,,2013-02-26 21:51:00,
2013-02-26 17:01:00,36.0,27.0,30.38,SE,141,3.0,9.0,69,0.00,,,0.02,,2013-02-26 22:01:00,
2013-02-26 17:11:00,36.0,27.0,30.38,SE,141,3.0,9.0,69,0.00,,,0.02,,2013-02-26 22:11:00,
2013-02-26 17:21:00,35.0,26.0,30.38,South,173,5.0,7.0,70,0.00,,,0.02,,2013-02-26 22:21:00,
2013-02-26 17:32:00,35.0,26.0,30.38,South,173,5.0,7.0,70,0.00,,,0.02,,2013-02-26 22:32:00,
2013-02-26 17:42:00,35.0,26.0,30.38,South,173,5.0,7.0,70,0.00,,,0.02,,2013-02-26 22:42:00,
2013-02-26 17:51:00,35.0,27.0,30.39,SSE,156,2.0,7.0,71,0.00,,,0.01,,2013-02-26 22:51:00,
2013-02-26 18:01:00,34.0,26.0,30.38,SSE,164,2.0,6.0,72,0.00,,,0.01,,2013-02-26 23:01:00,
2013-02-26 18:11:00,34.0,26.0,30.38,SSE,164,2.0,6.0,72,0.00,,,0.01,,2013-02-26 23:11:00,
2013-02-26 18:21:00,34.0,26.0,30.37,SSW,202,2.0,7.0,72,0.00,,,0.01,,2013-02-26 23:21:00,
2013-02-26 18:32:00,34.0,26.0,30.37,South,179,2.0,6.0,72,0.00,,,0.01,,2013-02-26 23:32:00,
2013-02-26 18:42:00,34.0,26.0,30.37,South,179,2.0,6.0,72,0.00,,,0.01,,2013-02-26 23:42:00,
2013-02-26 18:52:00,34.0,26.0,30.37,SSW,204,2.0,6.0,72,0.00,,,0.01,,2013-02-26 23:52:00,
2013-02-26 19:02:00,34.0,26.0,30.37,SSW,201,2.0,6.0,72,0.00,,,0.01,,2013-02-27 00:02:00,
2013-02-26 19:11:00,34.0,26.0,30.37,SSW,201,2.0,6.0,72,0.00,,,0.01,,2013-02-27 00:11:00,
2013-02-26 19:22:00,33.0,24.0,30.37,SSW,197,2.0,5.0,70,0.00,,,0.01,,2013-02-27 00:22:00,
2013-02-26 19:32:00,33.0,22.0,30.37,SSW,201,3.0,6.0,64,0.00,,,0.01,,2013-02-27 00:32:00,
2013-02-26 19:42:00,33.0,22.0,30.37,SSW,201,3.0,6.0,64,0.00,,,0.01,,2013-02-27 00:42:00,
2013-02-26 19:51:00,33.0,21.0,30.37,SSW,204,3.0,7.0,60,0.00,,,0.01,,2013-02-27 00:51:00,
2013-02-26 20:01:00,33.0,21.0,30.37,SSW,204,3.0,7.0,60,0.00,,,0.01,,2013-02-27 01:01:00,
2013-02-26 20:11:00,33.0,21.0,30.37,SSW,204,3.0,7.0,60,0.00,,,0.01,,2013-02-27 01:11:00,
2013-02-26 20:32:00,33.0,23.0,30.38,SSW,210,2.0,6.0,65,0.00,,,0.01,,2013-02-27 01:32:00,
2013-02-26 20:42:00,33.0,23.0,30.38,SSW,210,2.0,6.0,65,0.00,,,0.01,,2013-02-27 01:42:00,
2013-02-26 20:52:00,33.0,23.0,30.37,SW,219,2.0,6.0,66,0.00,,,0.01,,2013-02-27 01:52:00,
2013-02-26 21:02:00,33.0,23.0,30.37,SSW,206,1.0,4.0,67,0.00,,,0.01,,2013-02-27 02:02:00,
2013-02-26 21:16:00,33.0,23.0,30.37,SSW,206,1.0,4.0,67,0.00,,,0.01,,2013-02-27 02:16:00,
2013-02-26 21:32:00,33.0,24.0,30.37,SSW,203,2.0,4.0,68,0.00,,,0.01,,2013-02-27 02:32:00,
2013-02-26 21:42:00,33.0,24.0,30.37,SSW,203,2.0,4.0,68,0.00,,,0.01,,2013-02-27 02:42:00,
2013-02-26 21:52:00,33.0,25.0,30.38,SSW,201,1.0,4.0,71,0.00,,,0.01,,2013-02-27 02:52:00,
2013-02-26 22:02:00,33.0,25.0,30.37,SSW,207,1.0,5.0,72,0.00,,,0.01,,2013-02-27 03:02:00,
2013-02-26 22:11:00,33.0,25.0,30.37,SSW,207,1.0,5.0,72,0.00,,,0.01,,2013-02-27 03:11:00,
2013-02-26 22:22:00,33.0,25.0,30.37,SSW,198,2.0,5.0,72,0.00,,,0.01,,2013-02-27 03:22:00,
2013-02-26 22:32:00,32.0,24.0,30.36,SSW,198,0.0,2.0,72,0.00,,,0.01,,2013-02-27 03:32:00,
2013-02-26 22:42:00,32.0,24.0,30.36,SSW,198,0.0,2.0,72,0.00,,,0.01,,2013-02-27 03:42:00,
2013-02-26 22:52:00,32.0,24.0,30.36,SSW,198,0.0,2.0,72,0.00,,,0.01,,2013-02-27 03:52:00,
2013-02-26 23:02:00,32.0,24.0,30.35,SSW,198,0.0,1.0,72,0.00,,,0.01,,2013-02-27 04:02:00,
2013-02-26 23:12:00,32.0,24.0,30.35,SSW,198,0.0,1.0,72,0.00,,,0.01,,2013-02-27 04:12:00,
2013-02-26 23:22:00,32.0,24.0,30.34,SSW,198,0.0,1.0,73,0.00,,,0.01,,2013-02-27 04:22:00,
2013-02-26 23:32:00,32.0,24.0,30.34,SSW,198,0.0,1.0,73,0.00,,,0.01,,2013-02-27 04:32:00,
2013-02-26 23:52:00,32.0,24.0,30.34,SSW,198,0.0,1.0,73,0.00,,,0.01,,2013-02-27 04:52:00,